Terminal Aerodrome Forecast
Issued by NWS

Current Version | Previous Version | Text Only | Print | Product List | Glossary On
Versions: 1 2 3 4 5 6 7 8 9 10 11 12 13 14 15
000
FTUS42 TJSJ 190500 RRA
TAFISX
TAF
TISX 190546Z 1906/2006 05010KT P6SM VCSH FEW025 SCT040 BKN070
     FM191500 08013KT P6SM SCT030
     FM192300 06006KT P6SM FEW025
      AMD NOT SKED=

USA.gov is the U.S. government's official web portal to all federal, state and local government web resources and services.